Maple Springs, North Carolina
Current Conditions -  °F | °C
As of 9:55 PM on Sunday 23 Nov 2014 (Local Time) from KTNB Reporting Station
Haze Haze  
Wind Chill: 48°   Ceiling: 400
Heat Index: 48°   Visibility: 5mi
Dew Point: 48°   Wind: 3mph
Humidity: 100%   Direction: 330°NNW
Pressure: 29.75"   Gusts: NA
Location:  36.2179°N, 81.3873°W
Report Text: KTNB 240255Z AUTO 33003KT 5SM BR OVC004 09/09 A2975 RMK AO2 LTG DSNT SE P0001 60044 T00910091
Loading
Personal Weather Stations






























Interactive Weather Map New forecast layout! Learn more

10-Day Weather Forecast

Advertisements
Track Severe Weather on mobile